Time;durP1;ratioP1;P1;durP2;ratioP2;P2;SDS_P1;SDS_P2;PMS_P1;PMS_P2;Temp;Humidity;BMP_temperature;BMP_pressure;BME280_temperature;BME280_humidity;BME280_pressure;Samples;Min_cycle;Max_cycle;Signal;HPM_P1;HPM_P2
2022/11/29 00:51:45;;;;;;;15.18;4.75;;;8.50;99.90;;;;;;6407651;22;20029;-96
2022/11/29 00:54:11;;;;;;;15.40;5.03;;;8.50;99.90;;;;;;6385334;22;20024;-93
2022/11/29 00:56:37;;;;;;;16.27;5.23;;;8.40;99.90;;;;;;6357220;22;20021;-94
2022/11/29 00:59:03;;;;;;;13.97;5.13;;;8.40;99.90;;;;;;6385988;22;20255;-96
2022/11/29 01:01:29;;;;;;;15.83;4.70;;;8.40;99.90;;;;;;6386393;22;20117;-93
2022/11/29 01:04:19;;;;;;;15.37;4.13;;;8.50;99.90;;;;;;6388153;22;20300;-93
2022/11/29 01:06:45;;;;;;;16.27;5.07;;;8.40;99.90;;;;;;6392923;22;20465;-92
2022/11/29 01:09:11;;;;;;;14.33;4.43;;;8.40;99.90;;;;;;6376651;22;20021;-93
2022/11/29 01:11:38;;;;;;;18.03;4.80;;;8.40;99.90;;;;;;6393017;22;20019;-93
2022/11/29 01:14:03;;;;;;;13.60;4.43;;;8.40;99.90;;;;;;6384018;22;20021;-93
2022/11/29 01:16:31;;;;;;;12.47;4.47;;;8.40;99.90;;;;;;6382411;22;20014;-94
2022/11/29 10:58:13;;;;;;;11.43;4.68;;;9.00;99.90;;;;;;6408493;22;20096;-90
2022/11/29 11:00:54;;;;;;;10.13;5.00;;;9.00;99.90;;;;;;6383306;22;20014;-90
2022/11/29 11:03:31;;;;;;;13.60;5.18;;;9.10;99.90;;;;;;6381716;22;20014;-90
2022/11/29 11:06:08;;;;;;;10.90;4.60;;;9.10;99.90;;;;;;6384923;22;20013;-90
2022/11/29 11:08:36;;;;;;;11.57;5.60;;;9.00;99.90;;;;;;6380802;22;20021;-91
2022/11/29 11:11:06;;;;;;;11.02;4.47;;;9.00;99.90;;;;;;6355450;22;20122;-91
2022/11/29 11:13:33;;;;;;;11.57;4.53;;;9.10;99.90;;;;;;6354588;22;20018;-91
2022/11/29 11:16:23;;;;;;;11.35;4.53;;;9.00;99.90;;;;;;6381218;22;20451;-90
2022/11/29 11:18:48;;;;;;;10.35;4.43;;;9.10;99.90;;;;;;6380339;22;20021;-90
2022/11/29 11:21:18;;;;;;;10.37;4.17;;;9.10;99.90;;;;;;6353530;22;20018;-91
2022/11/29 11:23:57;;;;;;;11.23;5.07;;;9.10;99.90;;;;;;6383202;22;20499;-89
2022/11/29 11:26:24;;;;;;;10.50;4.80;;;9.10;99.90;;;;;;6378066;22;20018;-91
2022/11/29 11:28:52;;;;;;;11.60;4.82;;;9.10;99.90;;;;;;6378168;22;20017;-94
2022/11/29 11:31:33;;;;;;;11.80;4.60;;;9.10;99.90;;;;;;6378526;22;20039;-96
2022/11/29 11:34:33;;;;;;;11.07;4.60;;;9.00;99.90;;;;;;6377703;22;20014;-91
2022/11/29 11:37:13;;;;;;;11.65;5.32;;;9.00;99.90;;;;;;6368623;22;20017;-91
2022/11/29 11:39:40;;;;;;;10.85;4.82;;;9.00;99.90;;;;;;6377716;22;20018;-91
2022/11/29 11:45:27;;;;;;;8.65;4.18;;;9.00;99.90;;;;;;6403331;22;20447;-90
2022/11/29 11:48:14;;;;;;;8.70;4.13;;;9.00;99.90;;;;;;6372875;22;20010;-89
2022/11/29 11:51:01;;;;;;;9.30;4.68;;;9.00;99.90;;;;;;6376327;22;20045;-90
2022/11/29 11:53:34;;;;;;;9.17;4.60;;;9.00;99.90;;;;;;6350712;22;20017;-88
2022/11/29 11:56:12;;;;;;;9.65;4.18;;;9.00;99.90;;;;;;6377836;22;20342;-93
2022/11/29 11:58:44;;;;;;;8.27;3.97;;;9.00;99.90;;;;;;6380731;22;20022;-89
2022/11/29 12:01:30;;;;;;;16.60;5.03;;;9.00;99.90;;;;;;6382133;22;20013;-90
2022/11/29 12:04:29;;;;;;;8.70;4.57;;;9.00;99.90;;;;;;6388196;22;20018;-90
2022/11/29 12:06:59;;;;;;;8.70;3.95;;;8.90;99.90;;;;;;6378443;22;20021;-90
2022/11/29 12:10:06;;;;;;;10.27;4.93;;;8.90;99.90;;;;;;6380038;22;20454;-90
2022/11/29 12:12:40;;;;;;;9.35;4.18;;;8.90;99.90;;;;;;6379813;22;20093;-89
2022/11/29 12:15:18;;;;;;;10.35;4.65;;;8.90;99.90;;;;;;6355054;22;20014;-95
2022/11/29 12:17:54;;;;;;;8.35;4.18;;;8.80;99.90;;;;;;6381026;22;20070;-91
2022/11/29 12:20:20;;;;;;;7.75;3.58;;;8.80;99.90;;;;;;6386984;22;20016;-93
2022/11/29 12:22:52;;;;;;;8.30;4.00;;;8.80;99.90;;;;;;6404296;22;20018;-91
2022/11/29 12:25:53;;;;;;;7.22;3.60;;;8.80;99.90;;;;;;6392525;22;20018;-96
2022/11/29 12:28:49;;;;;;;7.10;3.25;;;8.70;99.90;;;;;;6315385;22;20014;-90
2022/11/29 12:31:46;;;;;;;7.97;3.50;;;8.70;99.90;;;;;;6404488;22;20414;-90
2022/11/29 12:34:24;;;;;;;7.55;3.47;;;8.60;99.90;;;;;;6385862;22;20046;-96
2022/11/29 12:37:17;;;;;;;7.95;3.85;;;8.60;99.90;;;;;;6383081;22;20013;-90
2022/11/29 12:40:31;;;;;;;5.70;3.08;;;8.60;99.90;;;;;;6381844;22;19998;-90
2022/11/29 12:43:19;;;;;;;7.20;3.65;;;8.60;99.90;;;;;;6329086;22;20028;-90
2022/11/29 12:45:55;;;;;;;9.68;4.43;;;8.60;99.90;;;;;;6383310;22;20018;-90
2022/11/29 12:48:28;;;;;;;8.57;3.85;;;8.50;99.90;;;;;;6381573;22;20014;-89
2022/11/29 12:51:18;;;;;;;7.18;3.70;;;8.50;99.90;;;;;;6384246;22;20025;-89
2022/11/29 12:53:59;;;;;;;9.55;4.85;;;8.50;99.90;;;;;;6382724;22;20014;-89
2022/11/29 12:56:30;;;;;;;8.55;4.53;;;8.50;99.90;;;;;;6382533;22;20017;-89
2022/11/29 12:58:59;;;;;;;6.93;3.97;;;8.50;99.90;;;;;;6378816;22;20018;-89
2022/11/29 13:02:02;;;;;;;10.18;4.45;;;8.50;99.90;;;;;;6385731;22;20024;-89
2022/11/29 13:04:58;;;;;;;10.40;4.78;;;8.50;99.90;;;;;;6384368;22;20014;-90
2022/11/29 13:07:57;;;;;;;10.25;4.82;;;8.50;99.90;;;;;;6413146;22;20529;-88
2022/11/29 13:11:04;;;;;;;9.38;4.57;;;8.50;99.90;;;;;;6389434;22;20014;-89
2022/11/29 13:13:44;;;;;;;8.95;4.40;;;8.50;99.90;;;;;;6289983;22;20015;-89
2022/11/29 13:16:23;;;;;;;9.43;4.50;;;8.40;99.90;;;;;;6412090;22;20018;-93
2022/11/29 13:19:20;;;;;;;8.93;4.72;;;8.40;99.90;;;;;;6384729;22;20010;-89
2022/11/29 13:22:10;;;;;;;9.60;4.70;;;8.40;99.90;;;;;;6386709;22;20021;-89
2022/11/29 13:24:41;;;;;;;8.70;4.43;;;8.30;99.90;;;;;;6410768;22;20018;-89
2022/11/29 13:27:18;;;;;;;11.05;3.63;;;8.30;99.90;;;;;;6384022;22;20014;-89
2022/11/29 13:29:45;;;;;;;10.70;4.53;;;8.30;99.90;;;;;;6382505;22;20010;-89
2022/11/29 13:32:37;;;;;;;12.23;5.55;;;8.20;99.90;;;;;;6384815;22;20070;-90
2022/11/29 13:35:29;;;;;;;10.48;4.55;;;8.20;99.90;;;;;;6383137;22;20013;-90
2022/11/29 13:38:06;;;;;;;8.77;4.32;;;8.20;99.90;;;;;;6385752;22;20089;-89
2022/11/29 13:40:51;;;;;;;9.50;4.22;;;8.20;99.90;;;;;;6386254;22;20014;-88
2022/11/29 13:43:44;;;;;;;7.72;4.03;;;8.20;99.90;;;;;;6382099;22;20014;-89
2022/11/29 13:46:28;;;;;;;9.68;4.47;;;8.10;99.90;;;;;;6413552;22;20049;-89
2022/11/29 13:48:56;;;;;;;10.13;4.93;;;8.10;99.90;;;;;;6384962;22;20014;-89
2022/11/29 13:51:41;;;;;;;8.57;4.80;;;8.20;99.90;;;;;;6385912;22;20037;-89
2022/11/29 13:54:30;;;;;;;8.95;4.13;;;8.10;99.90;;;;;;6383097;22;20017;-88
2022/11/29 13:57:08;;;;;;;10.27;4.82;;;8.20;99.90;;;;;;6410190;22;20067;-90
2022/11/29 14:05:28;;;;;;;8.35;4.00;;;8.10;99.90;;;;;;6344758;22;20031;-90
2022/11/29 14:08:24;;;;;;;10.43;4.78;;;8.20;99.90;;;;;;6293331;22;20018;-91
2022/11/29 14:11:16;;;;;;;8.88;4.30;;;8.10;99.90;;;;;;6290355;22;20015;-94
2022/11/29 14:13:51;;;;;;;9.25;4.40;;;8.10;99.90;;;;;;6271731;22;20022;-93
2022/11/29 14:16:19;;;;;;;9.07;4.50;;;8.10;99.90;;;;;;6294017;22;20046;-90
2022/11/29 14:19:17;;;;;;;9.02;4.30;;;8.10;99.90;;;;;;6293329;22;20068;-89
2022/11/29 14:22:01;;;;;;;8.23;4.10;;;8.00;99.90;;;;;;6313098;22;20011;-91
2022/11/29 14:24:36;;;;;;;8.95;4.68;;;8.00;99.90;;;;;;6299244;22;20021;-91
2022/11/29 14:27:05;;;;;;;10.65;4.85;;;8.00;99.90;;;;;;6296418;22;20022;-90
2022/11/29 14:29:49;;;;;;;10.60;5.10;;;8.00;99.90;;;;;;6293561;22;20022;-89
2022/11/29 14:32:37;;;;;;;11.38;5.40;;;8.00;99.90;;;;;;6295059;22;20072;-91
2022/11/29 14:35:11;;;;;;;9.38;4.70;;;8.00;99.90;;;;;;6317857;22;20014;-95
2022/11/29 14:38:11;;;;;;;9.52;4.88;;;8.00;99.90;;;;;;6293212;22;20027;-93
2022/11/29 14:40:44;;;;;;;9.73;4.40;;;8.00;99.90;;;;;;6320721;22;20459;-90
2022/11/29 14:43:39;;;;;;;10.35;5.47;;;7.90;99.90;;;;;;6321506;22;20014;-90
2022/11/29 14:46:30;;;;;;;9.27;4.35;;;7.90;99.90;;;;;;6268906;22;20015;-95
2022/11/29 14:48:58;;;;;;;9.05;4.97;;;7.90;99.90;;;;;;6278294;22;20014;-90
2022/11/29 14:51:28;;;;;;;11.02;5.30;;;7.80;99.90;;;;;;6320331;22;20094;-91
2022/11/29 14:54:18;;;;;;;11.40;5.10;;;7.80;99.90;;;;;;6320101;22;20019;-96
2022/11/29 14:56:46;;;;;;;12.90;5.55;;;7.80;99.90;;;;;;6295771;22;20023;-96
2022/11/29 14:59:48;;;;;;;10.45;5.15;;;7.80;99.90;;;;;;6292468;22;20439;-89
2022/11/29 15:02:48;;;;;;;10.27;5.10;;;7.80;99.90;;;;;;6291435;22;20011;-89
2022/11/29 15:05:29;;;;;;;9.52;4.75;;;7.80;99.90;;;;;;6291955;22;20018;-92
2022/11/29 15:08:08;;;;;;;8.73;4.43;;;7.80;99.90;;;;;;6290542;22;20027;-91
2022/11/29 15:10:40;;;;;;;8.88;4.07;;;7.80;99.90;;;;;;6289947;22;20081;-90
2022/11/29 15:13:11;;;;;;;8.07;3.80;;;7.70;99.90;;;;;;6291381;22;20026;-92
2022/11/29 15:15:50;;;;;;;10.45;4.78;;;7.70;99.90;;;;;;6290849;22;20054;-96
2022/11/29 15:18:39;;;;;;;11.82;4.43;;;7.70;99.90;;;;;;6289837;22;20015;-91
2022/11/29 15:21:33;;;;;;;9.40;4.63;;;7.70;99.90;;;;;;6289452;22;20097;-90
2022/11/29 15:24:07;;;;;;;9.80;4.53;;;7.70;99.90;;;;;;6288023;22;20017;-93
2022/11/29 15:26:33;;;;;;;11.23;5.15;;;7.70;99.90;;;;;;6290734;22;20041;-95
2022/11/29 15:29:16;;;;;;;10.02;5.18;;;7.70;99.90;;;;;;6291559;22;20014;-90
2022/11/29 15:31:44;;;;;;;11.05;6.63;;;7.60;99.90;;;;;;6291028;22;20050;-89
2022/11/29 15:34:30;;;;;;;12.15;5.10;;;7.70;99.90;;;;;;6291757;22;20040;-89
2022/11/29 15:36:57;;;;;;;7.78;4.20;;;7.70;99.90;;;;;;6288284;22;20015;-90
2022/11/29 15:39:32;;;;;;;11.60;4.63;;;7.70;99.90;;;;;;6289952;22;20089;-93
2022/11/29 15:42:13;;;;;;;14.95;5.10;;;7.70;99.90;;;;;;6300141;22;20022;-89
2022/11/29 15:44:54;;;;;;;8.07;4.35;;;7.70;99.90;;;;;;6251742;22;20021;-90
2022/11/29 15:47:25;;;;;;;7.75;3.50;;;7.60;99.90;;;;;;6311481;22;20066;-89
2022/11/29 15:49:53;;;;;;;7.13;3.75;;;7.70;99.90;;;;;;6276553;22;20011;-89
2022/11/29 15:52:34;;;;;;;7.43;3.85;;;7.60;99.90;;;;;;6302557;22;20002;-89
2022/11/29 15:55:04;;;;;;;7.50;4.53;;;7.60;99.90;;;;;;6293801;22;20015;-89
2022/11/29 15:57:43;;;;;;;8.02;4.25;;;7.60;99.90;;;;;;6300569;22;20018;-89
2022/11/29 16:00:24;;;;;;;7.72;3.75;;;7.60;99.90;;;;;;6300774;22;20025;-89
2022/11/29 16:05:37;;;;;;;9.75;4.43;;;7.60;99.90;;;;;;6383720;22;20021;-90
2022/11/29 16:08:12;;;;;;;10.48;5.40;;;7.60;99.90;;;;;;6323664;22;20049;-96
2022/11/29 16:10:48;;;;;;;7.13;4.10;;;7.70;99.90;;;;;;6323593;22;20062;-96
2022/11/29 16:13:39;;;;;;;9.40;4.70;;;7.70;99.90;;;;;;6324794;22;20019;-95
2022/11/29 16:16:21;;;;;;;7.82;3.95;;;7.60;99.90;;;;;;6323169;22;20021;-92
2022/11/29 16:18:48;;;;;;;7.90;4.15;;;7.60;99.90;;;;;;6336243;22;20022;-92
2022/11/29 16:21:25;;;;;;;8.00;4.32;;;7.60;99.90;;;;;;6344054;22;20010;-88
2022/11/29 16:24:18;;;;;;;7.82;4.57;;;7.60;99.90;;;;;;6323966;22;20018;-94
2022/11/29 16:26:45;;;;;;;8.25;4.45;;;7.70;99.90;;;;;;6318563;22;20505;-90
2022/11/29 16:29:27;;;;;;;9.70;5.38;;;7.70;99.90;;;;;;6319677;22;20082;-89
2022/11/29 16:31:53;;;;;;;9.75;4.65;;;7.70;99.90;;;;;;6344190;22;20022;-95
2022/11/29 16:34:30;;;;;;;7.90;4.32;;;7.70;99.90;;;;;;6318047;22;20006;-90
2022/11/29 16:37:05;;;;;;;9.13;4.63;;;7.70;99.90;;;;;;6318327;22;20025;-93
2022/11/29 16:43:58;;;;;;;8.82;4.60;;;7.70;99.90;;;;;;6372534;22;20029;-96
2022/11/29 16:46:26;;;;;;;9.00;4.13;;;7.70;99.90;;;;;;6319042;22;20095;-96
2022/11/29 16:48:54;;;;;;;10.07;4.80;;;7.80;99.90;;;;;;6318674;22;20083;-93
2022/11/29 20:34:20;;;;;;;14.82;7.15;;;7.70;99.90;;;;;;6405991;22;20025;-96
2022/11/29 20:37:21;;;;;;;19.88;8.75;;;7.70;99.90;;;;;;6382679;22;20022;-96
2022/11/29 20:40:33;;;;;;;18.08;8.07;;;7.70;99.90;;;;;;6382844;22;20435;-94
2022/11/29 20:47:20;;;;;;;17.65;7.47;;;7.70;99.90;;;;;;6416611;22;20024;-95
2022/11/29 20:49:52;;;;;;;18.20;8.05;;;7.60;99.90;;;;;;6377850;22;20014;-95
2022/11/29 20:52:47;;;;;;;18.30;7.88;;;7.60;99.90;;;;;;6357973;22;20518;-96
2022/11/29 22:14:48;;;;;;;22.58;9.43;;;7.50;99.90;;;;;;6415035;22;20018;-92
2022/11/29 22:17:16;;;;;;;21.83;8.30;;;7.50;99.90;;;;;;6386142;22;20018;-92
2022/11/29 22:19:44;;;;;;;19.55;7.85;;;7.50;99.90;;;;;;6385208;22;20016;-90
2022/11/29 23:25:49;;;;;;;23.08;8.70;;;7.40;99.90;;;;;;6410091;22;20053;-93
